createdAt,value
2019-04-30T00:00:45.515Z,55.00
2019-04-30T00:03:24.918Z,54.90
2019-04-30T00:05:57.353Z,54.50
2019-04-30T00:08:30.260Z,54.70
2019-04-30T00:10:59.695Z,54.70
2019-04-30T00:13:29.481Z,55.10
2019-04-30T00:16:01.630Z,55.20
2019-04-30T00:18:35.269Z,55.30
2019-04-30T00:21:02.271Z,55.30
2019-04-30T00:23:32.086Z,55.70
2019-04-30T00:26:06.223Z,55.90
2019-04-30T00:28:35.275Z,55.80
2019-04-30T00:31:05.528Z,55.70
2019-04-30T00:33:35.506Z,55.40
2019-04-30T00:36:05.579Z,55.80
2019-04-30T00:38:37.822Z,55.50
2019-04-30T00:41:10.168Z,55.30
2019-04-30T00:43:46.469Z,55.30
2019-04-30T00:46:11.098Z,55.30
2019-04-30T00:48:40.983Z,55.70
2019-04-30T00:51:17.839Z,56.30
2019-04-30T00:53:43.945Z,56.40
2019-04-30T00:56:15.648Z,56.00
2019-04-30T00:58:45.375Z,56.00
2019-04-30T01:01:43.523Z,55.80
2019-04-30T01:04:19.455Z,55.60
2019-04-30T01:06:49.958Z,55.30
2019-04-30T01:09:19.775Z,55.20
2019-04-30T01:11:49.511Z,55.10
2019-04-30T01:14:23.220Z,54.60
2019-04-30T01:16:50.642Z,54.90
2019-04-30T01:19:29.616Z,55.10
2019-04-30T01:21:52.152Z,54.90
2019-04-30T01:24:23.468Z,54.70
2019-04-30T01:26:53.870Z,54.70
2019-04-30T01:29:23.686Z,54.40
2019-04-30T01:31:53.476Z,54.50
2019-04-30T01:34:23.306Z,54.40
2019-04-30T01:36:55.524Z,54.10
2019-04-30T01:39:28.484Z,54.40
2019-04-30T01:41:58.591Z,54.30
2019-04-30T01:44:29.524Z,54.20
2019-04-30T01:46:59.486Z,54.20
2019-04-30T01:49:41.574Z,54.30
2019-04-30T01:52:01.053Z,54.20
2019-04-30T01:54:30.995Z,54.20
2019-04-30T01:57:19.324Z,54.30
2019-04-30T02:00:07.141Z,54.40
2019-04-30T02:02:39.481Z,54.30
2019-04-30T02:05:10.779Z,54.50
2019-04-30T02:07:40.603Z,54.80
2019-04-30T02:10:11.579Z,54.40
2019-04-30T02:12:41.399Z,54.90
2019-04-30T02:15:11.384Z,54.80
2019-04-30T02:17:41.250Z,54.90
2019-04-30T02:20:11.237Z,55.00
2019-04-30T02:22:41.033Z,54.90
2019-04-30T02:25:11.103Z,54.80
2019-04-30T02:27:40.828Z,55.50
2019-04-30T02:30:11.530Z,55.70
2019-04-30T02:32:41.364Z,55.40
2019-04-30T02:35:28.807Z,55.20
2019-04-30T02:38:16.563Z,55.40
2019-04-30T02:40:49.334Z,55.50
2019-04-30T02:43:20.736Z,55.10
2019-04-30T02:45:53.059Z,55.30
2019-04-30T02:48:25.491Z,55.50
2019-04-30T02:51:00.060Z,55.40
2019-04-30T02:54:24.089Z,55.20
2019-04-30T02:57:02.222Z,55.00
2019-04-30T02:59:31.975Z,55.40
2019-04-30T03:02:01.744Z,55.30
2019-04-30T03:04:32.555Z,55.10
2019-04-30T03:07:02.399Z,55.30
2019-04-30T03:09:33.008Z,55.40
2019-04-30T03:12:02.848Z,55.60
2019-04-30T03:14:32.573Z,55.90
2019-04-30T03:17:20.946Z,55.70
2019-04-30T03:20:00.273Z,56.30
2019-04-30T03:22:30.226Z,56.00
2019-04-30T03:25:00.290Z,56.10
2019-04-30T03:27:30.271Z,56.40
2019-04-30T03:30:00.335Z,56.40
2019-04-30T03:32:35.624Z,56.20
2019-04-30T03:35:03.118Z,56.00
2019-04-30T03:37:33.186Z,55.80
2019-04-30T03:40:02.992Z,55.80
2019-04-30T03:42:32.702Z,55.80
2019-04-30T03:45:02.741Z,55.90
2019-04-30T03:47:32.728Z,55.80
2019-04-30T03:50:02.525Z,56.20
2019-04-30T03:52:32.349Z,55.40
2019-04-30T03:55:02.928Z,55.40
2019-04-30T03:57:32.964Z,55.20
2019-04-30T04:00:02.979Z,55.10
2019-04-30T04:02:40.921Z,54.60
2019-04-30T04:05:36.082Z,55.40
2019-04-30T04:08:30.829Z,55.60
2019-04-30T04:11:10.227Z,55.70
2019-04-30T04:13:40.154Z,55.40
2019-04-30T04:16:11.153Z,55.10
2019-04-30T04:18:41.026Z,54.80
2019-04-30T04:21:16.500Z,54.70
2019-04-30T04:23:42.214Z,55.00
2019-04-30T04:26:12.048Z,56.10
2019-04-30T04:28:43.657Z,55.10
2019-04-30T04:31:13.548Z,55.10
2019-04-30T04:33:43.315Z,55.00
2019-04-30T04:36:13.142Z,54.80
2019-04-30T04:38:42.939Z,54.50
2019-04-30T04:41:12.746Z,54.70
2019-04-30T04:43:42.493Z,54.70
2019-04-30T04:46:12.229Z,54.80
2019-04-30T04:48:41.970Z,54.80
2019-04-30T04:51:27.663Z,54.70
2019-04-30T04:53:43.229Z,54.50
2019-04-30T04:56:13.029Z,54.80
2019-04-30T04:58:42.748Z,54.40
2019-04-30T05:01:12.467Z,54.20
2019-04-30T05:03:42.247Z,54.30
2019-04-30T05:06:12.097Z,54.00
2019-04-30T05:08:41.938Z,54.00
2019-04-30T05:11:11.729Z,54.00
2019-04-30T05:13:41.554Z,54.60
2019-04-30T05:16:11.426Z,54.40
2019-04-30T05:18:41.131Z,54.30
2019-04-30T05:21:10.866Z,54.60
2019-04-30T05:23:42.703Z,54.50
2019-04-30T05:26:12.071Z,54.00
2019-04-30T05:28:41.822Z,54.30
2019-04-30T05:31:11.703Z,54.00
2019-04-30T05:33:41.643Z,53.60
2019-04-30T05:36:11.464Z,53.80
2019-04-30T05:38:42.196Z,53.70
2019-04-30T05:41:11.923Z,53.30
2019-04-30T05:43:41.638Z,52.70
2019-04-30T05:46:14.052Z,53.70
2019-04-30T05:48:43.046Z,53.30
2019-04-30T05:51:12.850Z,53.30
2019-04-30T05:54:09.934Z,53.20
2019-04-30T05:56:42.702Z,53.20
2019-04-30T05:59:12.156Z,53.30
2019-04-30T06:01:48.106Z,53.40
2019-04-30T06:04:13.525Z,53.80
2019-04-30T06:06:43.422Z,53.70
2019-04-30T06:09:31.097Z,53.40
2019-04-30T06:12:09.451Z,53.00
2019-04-30T06:14:51.833Z,53.20
2019-04-30T06:17:22.074Z,53.70
2019-04-30T06:19:51.939Z,52.90
2019-04-30T06:22:22.871Z,53.00
2019-04-30T06:24:52.666Z,52.70
2019-04-30T06:27:22.772Z,52.10
2019-04-30T06:29:52.701Z,51.90
2019-04-30T06:32:22.802Z,52.50
2019-04-30T06:34:53.029Z,51.80
2019-04-30T06:37:23.135Z,51.70
2019-04-30T06:39:52.988Z,51.90
2019-04-30T06:42:39.285Z,51.50
2019-04-30T06:45:09.480Z,51.40
2019-04-30T06:47:41.187Z,51.60
2019-04-30T06:50:11.613Z,51.70
2019-04-30T06:52:41.540Z,51.10
2019-04-30T06:55:11.413Z,50.60
2019-04-30T06:57:41.148Z,51.00
2019-04-30T07:00:11.636Z,50.90
2019-04-30T07:02:41.443Z,50.30
2019-04-30T07:05:12.200Z,50.80
2019-04-30T07:08:08.876Z,50.40
2019-04-30T07:10:34.627Z,50.00
2019-04-30T07:13:23.539Z,50.10
2019-04-30T07:15:53.285Z,49.90
2019-04-30T07:18:23.035Z,49.70
2019-04-30T07:20:52.793Z,49.40
2019-04-30T07:23:22.581Z,49.90
2019-04-30T07:26:04.212Z,50.20
2019-04-30T07:28:46.574Z,50.40
2019-04-30T07:31:11.691Z,49.60
2019-04-30T07:33:39.464Z,49.90
2019-04-30T07:36:09.672Z,50.20
2019-04-30T07:38:51.779Z,49.50
2019-04-30T07:41:12.371Z,49.40
2019-04-30T07:43:42.351Z,49.10
2019-04-30T07:46:12.267Z,48.60
2019-04-30T07:48:42.246Z,48.00
2019-04-30T07:51:12.449Z,48.10
2019-04-30T07:53:42.635Z,47.40
2019-04-30T07:56:24.432Z,47.30
2019-04-30T07:58:43.860Z,46.70
2019-04-30T08:01:13.644Z,47.00
2019-04-30T08:04:08.993Z,48.20
2019-04-30T08:06:39.793Z,48.00
2019-04-30T08:09:10.940Z,47.60
2019-04-30T08:11:43.432Z,47.20
2019-04-30T08:14:12.385Z,47.70
2019-04-30T08:16:42.249Z,46.70
2019-04-30T08:19:12.042Z,46.10
2019-04-30T08:21:42.846Z,46.20
2019-04-30T08:24:12.604Z,45.80
2019-04-30T08:26:42.459Z,45.60
2019-04-30T08:29:12.220Z,45.30
2019-04-30T08:31:44.051Z,44.80
2019-04-30T08:34:13.843Z,43.70
2019-04-30T08:36:44.156Z,43.30
2019-04-30T08:39:13.931Z,42.60
2019-04-30T08:41:43.682Z,41.40
2019-04-30T08:44:13.496Z,41.70
2019-04-30T08:46:43.227Z,42.60
2019-04-30T08:49:13.215Z,41.00
2019-04-30T08:51:43.326Z,41.50
2019-04-30T08:54:16.299Z,42.20
2019-04-30T08:56:46.933Z,41.60
2019-04-30T08:59:16.650Z,41.10
2019-04-30T09:01:46.452Z,41.70
2019-04-30T09:04:16.325Z,40.90
2019-04-30T09:06:46.136Z,41.20
2019-04-30T09:09:18.862Z,41.00
2019-04-30T09:11:52.888Z,42.10
2019-04-30T09:14:20.365Z,41.20
2019-04-30T09:16:51.310Z,41.80
2019-04-30T09:19:23.771Z,41.90
2019-04-30T09:21:53.512Z,40.70
2019-04-30T09:24:23.339Z,40.00
2019-04-30T09:26:53.188Z,40.50
2019-04-30T09:29:23.022Z,40.30
2019-04-30T09:31:52.772Z,40.70
2019-04-30T09:34:22.623Z,39.90
2019-04-30T09:36:52.340Z,39.60
2019-04-30T09:39:23.121Z,40.30
2019-04-30T09:41:53.239Z,40.50
2019-04-30T09:44:22.968Z,40.20
2019-04-30T09:46:52.871Z,40.20
2019-04-30T09:49:22.767Z,39.20
2019-04-30T09:51:52.726Z,39.50
2019-04-30T09:54:22.872Z,40.60
2019-04-30T09:56:53.047Z,40.10
2019-04-30T09:59:22.763Z,41.20
2019-04-30T10:01:52.507Z,41.10
2019-04-30T10:04:22.810Z,41.20
2019-04-30T10:06:52.902Z,41.00
2019-04-30T10:09:22.818Z,41.10
2019-04-30T10:12:01.719Z,41.30
2019-04-30T10:14:31.567Z,41.90
2019-04-30T10:17:19.347Z,41.60
2019-04-30T10:19:49.325Z,42.00
2019-04-30T10:22:19.261Z,40.60
2019-04-30T10:24:49.513Z,41.80
2019-04-30T10:27:19.592Z,41.40
2019-04-30T10:29:50.098Z,42.30
2019-04-30T10:32:19.849Z,42.10
2019-04-30T10:34:49.688Z,42.10
2019-04-30T10:37:19.508Z,41.00
2019-04-30T10:39:49.421Z,41.90
2019-04-30T10:42:20.219Z,42.30
2019-04-30T10:44:50.483Z,41.90
2019-04-30T10:47:20.616Z,40.70
2019-04-30T10:49:50.950Z,41.50
2019-04-30T10:52:21.141Z,42.00
2019-04-30T10:54:51.335Z,41.80
2019-04-30T10:57:21.818Z,42.80
2019-04-30T10:59:51.924Z,43.60
2019-04-30T11:02:22.036Z,43.60
2019-04-30T11:04:52.232Z,43.70
2019-04-30T11:07:22.598Z,44.00
2019-04-30T11:09:52.711Z,44.00
2019-04-30T11:12:23.923Z,43.50
2019-04-30T11:14:53.981Z,44.20
2019-04-30T11:17:24.681Z,43.80
2019-04-30T11:19:55.270Z,43.60
2019-04-30T11:22:25.964Z,44.80
2019-04-30T11:25:00.021Z,44.40
2019-04-30T11:27:30.059Z,44.60
2019-04-30T11:30:03.287Z,44.10
2019-04-30T11:32:31.858Z,43.20
2019-04-30T11:35:02.111Z,44.50
2019-04-30T11:37:32.408Z,42.50
2019-04-30T11:40:02.558Z,44.00
2019-04-30T11:42:32.857Z,43.20
2019-04-30T11:45:03.124Z,43.90
2019-04-30T11:47:34.651Z,44.00
2019-04-30T11:50:08.752Z,43.70
2019-04-30T11:52:39.004Z,45.00
2019-04-30T11:55:10.410Z,43.30
2019-04-30T11:57:40.575Z,44.60
2019-04-30T12:00:15.249Z,43.60
2019-04-30T12:02:45.447Z,43.30
2019-04-30T12:05:20.532Z,43.80
2019-04-30T12:08:00.843Z,43.60
2019-04-30T12:10:48.537Z,43.60
2019-04-30T12:13:25.617Z,43.90
2019-04-30T12:15:56.294Z,42.70
2019-04-30T12:18:27.598Z,43.80
2019-04-30T12:20:57.645Z,43.10
2019-04-30T12:23:27.721Z,43.70
2019-04-30T12:26:00.965Z,42.20
2019-04-30T12:28:29.747Z,42.60
2019-04-30T12:31:00.054Z,43.00
2019-04-30T12:33:30.180Z,43.80
2019-04-30T12:36:00.421Z,44.00
2019-04-30T12:38:30.611Z,43.60
2019-04-30T12:41:00.803Z,44.10
2019-04-30T12:43:30.936Z,43.70
2019-04-30T12:46:05.294Z,42.50
2019-04-30T12:49:02.193Z,44.00
2019-04-30T12:51:58.837Z,42.60
2019-04-30T12:54:50.972Z,42.90
2019-04-30T12:57:29.465Z,43.70
2019-04-30T13:00:00.499Z,44.20
2019-04-30T13:02:32.731Z,43.40
2019-04-30T13:05:02.914Z,43.30
2019-04-30T13:07:33.742Z,43.40
2019-04-30T13:10:05.074Z,43.70
2019-04-30T13:12:36.353Z,43.20
2019-04-30T13:15:09.647Z,44.70
2019-04-30T13:17:39.853Z,43.70
2019-04-30T13:20:18.537Z,43.80
2019-04-30T13:22:44.275Z,44.40
2019-04-30T13:25:14.338Z,44.00
2019-04-30T13:27:48.240Z,42.90
2019-04-30T13:30:29.818Z,44.40
2019-04-30T13:33:06.377Z,44.20
2019-04-30T13:35:36.586Z,42.40
2019-04-30T13:38:16.457Z,43.00
2019-04-30T13:41:05.629Z,44.00
2019-04-30T13:43:53.352Z,45.10
2019-04-30T13:46:24.067Z,43.10
2019-04-30T13:48:54.215Z,43.60
2019-04-30T13:51:24.341Z,44.50
2019-04-30T13:53:54.579Z,44.10
2019-04-30T13:56:24.885Z,44.40
2019-04-30T13:58:54.981Z,44.50
2019-04-30T14:01:25.367Z,44.60
2019-04-30T14:04:14.463Z,43.70
2019-04-30T14:07:12.933Z,44.90
2019-04-30T14:09:43.407Z,44.60
2019-04-30T14:12:13.851Z,44.90
2019-04-30T14:14:43.996Z,44.70
2019-04-30T14:17:14.515Z,44.60
2019-04-30T14:19:44.636Z,44.40
2019-04-30T14:22:15.027Z,44.40
2019-04-30T14:24:45.218Z,45.00
2019-04-30T14:27:15.556Z,44.80
2019-04-30T14:29:45.728Z,44.60
2019-04-30T14:32:16.097Z,44.80
2019-04-30T14:34:46.222Z,43.90
2019-04-30T14:37:16.640Z,44.70
2019-04-30T14:39:46.848Z,45.00
2019-04-30T14:42:23.593Z,44.20
2019-04-30T14:45:04.515Z,44.90
2019-04-30T14:47:45.385Z,44.90
2019-04-30T14:50:18.656Z,44.40
2019-04-30T14:53:04.367Z,44.70
2019-04-30T14:55:53.268Z,44.40
2019-04-30T14:58:51.210Z,44.70
2019-04-30T15:01:40.292Z,44.20
2019-04-30T15:04:10.934Z,45.40
2019-04-30T15:06:40.912Z,45.00
2019-04-30T15:09:11.916Z,45.00
2019-04-30T15:11:42.111Z,44.10
2019-04-30T15:14:12.441Z,44.50
2019-04-30T15:16:42.359Z,44.50
2019-04-30T15:19:12.218Z,45.00
2019-04-30T15:21:41.940Z,44.70
2019-04-30T15:24:24.809Z,44.30
2019-04-30T15:26:57.552Z,44.90
2019-04-30T15:29:26.319Z,45.10
2019-04-30T15:31:56.111Z,45.00
2019-04-30T15:34:25.952Z,45.10
2019-04-30T15:36:55.802Z,44.40
2019-04-30T15:39:45.375Z,44.70
2019-04-30T15:42:16.075Z,44.80
2019-04-30T15:44:46.562Z,44.50
2019-04-30T15:47:18.593Z,45.10
2019-04-30T15:49:49.265Z,44.80
2019-04-30T15:52:19.204Z,44.50
2019-04-30T15:54:49.154Z,44.40
2019-04-30T15:57:20.137Z,44.30
2019-04-30T15:59:49.944Z,44.70
2019-04-30T16:02:53.654Z,44.10
2019-04-30T16:05:23.805Z,43.90
2019-04-30T16:08:00.446Z,44.60
2019-04-30T16:10:55.227Z,45.70
2019-04-30T16:13:28.968Z,44.80
2019-04-30T16:15:59.188Z,43.50
2019-04-30T16:18:35.839Z,43.80
2019-04-30T16:21:05.839Z,44.70
2019-04-30T16:23:35.687Z,43.00
2019-04-30T16:26:05.471Z,44.70
2019-04-30T16:28:36.179Z,45.00
2019-04-30T16:31:06.540Z,44.80
2019-04-30T16:33:36.498Z,43.90
2019-04-30T16:36:06.466Z,45.30
2019-04-30T16:38:36.372Z,45.20
2019-04-30T16:41:06.279Z,44.60
2019-04-30T16:43:36.115Z,44.10
2019-04-30T16:46:06.221Z,44.90
2019-04-30T16:48:36.114Z,44.40
2019-04-30T16:51:05.951Z,43.90
2019-04-30T16:53:35.847Z,44.30
2019-04-30T16:56:05.616Z,44.00
2019-04-30T16:58:53.318Z,44.10
2019-04-30T17:01:23.268Z,44.60
2019-04-30T17:03:55.240Z,44.70
2019-04-30T17:06:26.179Z,44.80
2019-04-30T17:09:05.555Z,44.80
2019-04-30T17:12:03.526Z,45.80
2019-04-30T17:14:34.129Z,45.00
2019-04-30T17:17:03.925Z,44.70
2019-04-30T17:19:33.710Z,44.60
2019-04-30T17:22:03.559Z,43.90
2019-04-30T17:24:33.415Z,44.80
2019-04-30T17:27:15.910Z,44.30
2019-04-30T17:29:35.039Z,44.20
2019-04-30T17:32:05.045Z,44.20
2019-04-30T17:34:34.881Z,45.10
2019-04-30T17:37:05.042Z,44.70
2019-04-30T17:39:35.006Z,44.30
2019-04-30T17:42:04.957Z,44.50
2019-04-30T17:44:34.719Z,44.50
2019-04-30T17:47:04.529Z,44.30
2019-04-30T17:49:34.392Z,44.40
2019-04-30T17:52:04.287Z,44.30
2019-04-30T17:54:35.298Z,44.30
2019-04-30T17:57:06.126Z,44.30
2019-04-30T17:59:35.918Z,44.40
2019-04-30T18:02:07.166Z,44.50
2019-04-30T18:04:37.006Z,43.30
2019-04-30T18:07:06.718Z,45.00
2019-04-30T18:09:36.573Z,44.80
2019-04-30T18:12:06.340Z,44.30
2019-04-30T18:14:36.071Z,44.50
2019-04-30T18:17:06.063Z,44.10
2019-04-30T18:19:54.866Z,44.80
2019-04-30T18:22:41.842Z,44.60
2019-04-30T18:25:23.487Z,44.40
2019-04-30T18:27:56.792Z,44.30
2019-04-30T18:51:38.433Z,45.10
2019-04-30T18:53:57.710Z,44.70
2019-04-30T18:56:29.004Z,44.80
2019-04-30T18:58:58.909Z,44.90
2019-04-30T19:01:28.790Z,44.80
2019-04-30T19:04:01.074Z,44.90
2019-04-30T19:06:30.033Z,44.90
2019-04-30T19:09:29.692Z,45.00
2019-04-30T19:12:19.417Z,45.00
2019-04-30T19:15:03.014Z,45.00
2019-04-30T19:17:51.061Z,45.40
2019-04-30T19:20:31.221Z,45.40
2019-04-30T19:23:01.051Z,45.40
2019-04-30T19:25:30.780Z,45.40
2019-04-30T19:28:11.623Z,45.30
2019-04-30T19:30:32.931Z,45.30
2019-04-30T19:33:03.060Z,45.20
2019-04-30T19:35:33.195Z,45.20
2019-04-30T19:38:03.038Z,45.20
2019-04-30T19:40:32.966Z,45.20
2019-04-30T19:43:02.634Z,45.50
2019-04-30T19:45:32.307Z,45.60
2019-04-30T19:48:01.987Z,45.40
2019-04-30T19:50:31.651Z,45.40
2019-04-30T19:53:01.322Z,45.40
2019-04-30T19:55:31.091Z,45.30
2019-04-30T19:58:00.772Z,45.40
2019-04-30T20:00:31.008Z,45.30
2019-04-30T20:03:00.914Z,45.30
2019-04-30T20:05:32.474Z,45.30
2019-04-30T20:08:02.347Z,45.30
2019-04-30T20:10:32.699Z,45.40
2019-04-30T20:13:02.346Z,45.30
2019-04-30T20:15:32.251Z,45.70
2019-04-30T20:18:04.827Z,45.90
2019-04-30T20:20:34.639Z,45.80
2019-04-30T20:23:04.666Z,46.00
2019-04-30T20:25:35.386Z,46.00
2019-04-30T20:28:05.286Z,46.00
2019-04-30T20:30:35.176Z,46.20
2019-04-30T20:33:04.847Z,46.30
2019-04-30T20:35:34.512Z,46.40
2019-04-30T20:38:21.555Z,46.50
2019-04-30T20:41:00.004Z,46.40
2019-04-30T20:43:23.276Z,46.60
2019-04-30T20:45:53.003Z,46.90
2019-04-30T20:48:22.676Z,47.30
2019-04-30T20:50:52.411Z,47.70
2019-04-30T20:53:22.107Z,47.60
2019-04-30T20:55:51.770Z,47.60
2019-04-30T20:58:21.443Z,47.80
2019-04-30T21:01:01.090Z,47.80
2019-04-30T21:03:22.682Z,48.00
2019-04-30T21:05:52.355Z,48.20
2019-04-30T21:08:22.026Z,48.00
2019-04-30T21:10:52.751Z,47.30
2019-04-30T21:13:22.520Z,47.80
2019-04-30T21:15:54.943Z,47.90
2019-04-30T21:18:23.563Z,47.80
2019-04-30T21:20:53.294Z,47.70
2019-04-30T21:23:22.966Z,47.70
2019-04-30T21:25:52.808Z,47.50
2019-04-30T21:28:22.479Z,47.90
2019-04-30T21:30:52.143Z,48.00
2019-04-30T21:33:43.887Z,48.10
2019-04-30T21:36:19.455Z,48.40
2019-04-30T21:38:49.202Z,48.40
2019-04-30T21:41:19.567Z,48.40
2019-04-30T21:43:50.388Z,48.50
2019-04-30T21:46:20.075Z,48.50
2019-04-30T21:48:49.738Z,48.60
2019-04-30T21:51:19.411Z,48.60
2019-04-30T21:53:50.396Z,48.90
2019-04-30T21:56:20.283Z,49.10
2019-04-30T21:58:49.947Z,49.70
2019-04-30T22:01:22.558Z,49.50
2019-04-30T22:03:54.314Z,49.20
2019-04-30T22:06:24.059Z,49.10
2019-04-30T22:08:53.806Z,49.00
2019-04-30T22:11:23.626Z,48.90
2019-04-30T22:13:53.294Z,48.90
2019-04-30T22:16:23.043Z,48.80
2019-04-30T22:18:52.792Z,48.70
2019-04-30T22:21:22.549Z,49.10
2019-04-30T22:23:52.211Z,49.50
2019-04-30T22:26:21.939Z,49.60
2019-04-30T22:28:51.615Z,49.70
2019-04-30T22:31:21.286Z,49.70
2019-04-30T22:33:51.173Z,49.60
2019-04-30T22:36:25.965Z,49.50
2019-04-30T22:39:12.146Z,49.40
2019-04-30T22:41:41.824Z,49.60
2019-04-30T22:44:11.759Z,49.40
2019-04-30T22:46:41.423Z,49.60
2019-04-30T22:49:11.168Z,49.40
2019-04-30T22:51:40.836Z,49.20
2019-04-30T22:54:11.579Z,49.10
2019-04-30T22:56:41.255Z,49.70
2019-04-30T22:59:10.934Z,49.70
2019-04-30T23:01:52.718Z,49.70
2019-04-30T23:04:30.734Z,49.80
2019-04-30T23:07:00.428Z,49.90
2019-04-30T23:09:30.139Z,49.80
2019-04-30T23:11:59.799Z,49.70
2019-04-30T23:14:29.615Z,49.50
2019-04-30T23:16:59.343Z,49.60
2019-04-30T23:19:29.286Z,49.60
2019-04-30T23:22:00.014Z,49.50
2019-04-30T23:24:29.679Z,49.50
2019-04-30T23:26:59.343Z,49.50
2019-04-30T23:29:29.010Z,49.60
2019-04-30T23:31:58.671Z,49.60
2019-04-30T23:34:28.339Z,49.40
2019-04-30T23:36:58.007Z,49.50
2019-04-30T23:39:27.670Z,49.50
2019-04-30T23:41:57.325Z,49.50
2019-04-30T23:44:27.098Z,49.60
2019-04-30T23:46:56.757Z,49.60
2019-04-30T23:49:26.494Z,49.80
2019-04-30T23:51:56.151Z,49.60
2019-04-30T23:54:25.915Z,49.60
2019-04-30T23:56:55.574Z,49.40
2019-04-30T23:59:25.319Z,49.60
